sensor_id;sensor_type;location;lat;lon;timestamp;P1;durP1;ratioP1;P2;durP2;ratioP2
58354;SDS011;44160;49.080;19.302;2022-11-15T00:00:28;85.63;;;24.02;;
58354;SDS011;44160;49.080;19.302;2022-11-15T00:02:54;105.55;;;25.85;;
58354;SDS011;44160;49.080;19.302;2022-11-15T00:05:20;57.13;;;22.80;;
58354;SDS011;44160;49.080;19.302;2022-11-15T00:07:46;89.30;;;24.70;;
58354;SDS011;44160;49.080;19.302;2022-11-15T00:10:12;96.88;;;24.23;;
58354;SDS011;44160;49.080;19.302;2022-11-15T00:12:38;87.25;;;24.13;;
58354;SDS011;44160;49.080;19.302;2022-11-15T00:15:05;98.63;;;25.30;;
58354;SDS011;44160;49.080;19.302;2022-11-15T00:17:31;69.13;;;22.80;;
58354;SDS011;44160;49.080;19.302;2022-11-15T00:19:57;61.55;;;24.50;;
58354;SDS011;44160;49.080;19.302;2022-11-15T00:22:23;150.27;;;28.15;;
58354;SDS011;44160;49.080;19.302;2022-11-15T00:24:49;80.35;;;25.75;;
58354;SDS011;44160;49.080;19.302;2022-11-15T00:27:15;133.70;;;29.30;;
58354;SDS011;44160;49.080;19.302;2022-11-15T00:29:41;105.95;;;28.05;;
58354;SDS011;44160;49.080;19.302;2022-11-15T00:32:11;142.85;;;28.98;;
58354;SDS011;44160;49.080;19.302;2022-11-15T00:34:37;85.03;;;23.52;;
58354;SDS011;44160;49.080;19.302;2022-11-15T00:37:03;154.85;;;28.35;;
58354;SDS011;44160;49.080;19.302;2022-11-15T00:39:29;93.93;;;24.92;;
58354;SDS011;44160;49.080;19.302;2022-11-15T00:41:55;102.63;;;26.60;;
58354;SDS011;44160;49.080;19.302;2022-11-15T00:44:21;93.47;;;23.23;;
58354;SDS011;44160;49.080;19.302;2022-11-15T00:46:47;171.65;;;27.95;;
58354;SDS011;44160;49.080;19.302;2022-11-15T00:49:13;91.03;;;28.25;;
58354;SDS011;44160;49.080;19.302;2022-11-15T00:51:39;123.03;;;27.95;;
58354;SDS011;44160;49.080;19.302;2022-11-15T00:54:05;137.13;;;37.47;;
58354;SDS011;44160;49.080;19.302;2022-11-15T00:56:31;189.82;;;45.75;;
58354;SDS011;44160;49.080;19.302;2022-11-15T00:58:57;155.07;;;43.70;;
58354;SDS011;44160;49.080;19.302;2022-11-15T01:01:23;159.13;;;39.42;;
58354;SDS011;44160;49.080;19.302;2022-11-15T01:03:49;126.82;;;27.17;;
58354;SDS011;44160;49.080;19.302;2022-11-15T01:06:15;109.03;;;26.65;;
58354;SDS011;44160;49.080;19.302;2022-11-15T01:08:41;68.35;;;24.15;;
58354;SDS011;44160;49.080;19.302;2022-11-15T01:11:08;103.28;;;29.02;;
58354;SDS011;44160;49.080;19.302;2022-11-15T01:13:35;122.35;;;29.13;;
58354;SDS011;44160;49.080;19.302;2022-11-15T01:16:12;76.72;;;23.40;;
58354;SDS011;44160;49.080;19.302;2022-11-15T01:18:39;90.80;;;24.50;;
58354;SDS011;44160;49.080;19.302;2022-11-15T01:21:06;82.32;;;23.27;;
58354;SDS011;44160;49.080;19.302;2022-11-15T01:23:32;83.53;;;25.50;;
58354;SDS011;44160;49.080;19.302;2022-11-15T01:25:59;65.78;;;25.25;;
58354;SDS011;44160;49.080;19.302;2022-11-15T01:28:25;98.28;;;26.25;;
58354;SDS011;44160;49.080;19.302;2022-11-15T01:30:51;126.47;;;25.30;;
58354;SDS011;44160;49.080;19.302;2022-11-15T01:33:17;79.47;;;26.00;;
58354;SDS011;44160;49.080;19.302;2022-11-15T01:35:43;106.03;;;27.40;;
58354;SDS011;44160;49.080;19.302;2022-11-15T01:38:09;94.00;;;26.85;;
58354;SDS011;44160;49.080;19.302;2022-11-15T01:40:35;70.25;;;22.52;;
58354;SDS011;44160;49.080;19.302;2022-11-15T01:43:18;90.18;;;23.00;;
58354;SDS011;44160;49.080;19.302;2022-11-15T01:45:44;51.72;;;20.00;;
58354;SDS011;44160;49.080;19.302;2022-11-15T01:48:12;72.53;;;20.17;;
58354;SDS011;44160;49.080;19.302;2022-11-15T01:50:38;101.28;;;21.60;;
58354;SDS011;44160;49.080;19.302;2022-11-15T01:53:04;52.85;;;18.30;;
58354;SDS011;44160;49.080;19.302;2022-11-15T01:55:30;87.85;;;22.50;;
58354;SDS011;44160;49.080;19.302;2022-11-15T01:57:58;59.80;;;19.20;;
58354;SDS011;44160;49.080;19.302;2022-11-15T02:00:25;83.53;;;24.05;;
58354;SDS011;44160;49.080;19.302;2022-11-15T02:02:51;82.10;;;27.65;;
58354;SDS011;44160;49.080;19.302;2022-11-15T02:05:17;86.55;;;23.27;;
58354;SDS011;44160;49.080;19.302;2022-11-15T02:07:43;123.63;;;24.65;;
58354;SDS011;44160;49.080;19.302;2022-11-15T02:10:12;60.35;;;20.17;;
58354;SDS011;44160;49.080;19.302;2022-11-15T02:12:38;131.43;;;26.98;;
58354;SDS011;44160;49.080;19.302;2022-11-15T02:15:05;63.38;;;21.92;;
58354;SDS011;44160;49.080;19.302;2022-11-15T02:25:39;84.28;;;18.85;;
58354;SDS011;44160;49.080;19.302;2022-11-15T02:28:10;97.05;;;19.95;;
58354;SDS011;44160;49.080;19.302;2022-11-15T02:30:42;130.80;;;28.58;;
58354;SDS011;44160;49.080;19.302;2022-11-15T02:35:43;71.45;;;21.85;;
58354;SDS011;44160;49.080;19.302;2022-11-15T02:43:09;62.22;;;21.25;;
58354;SDS011;44160;49.080;19.302;2022-11-15T02:45:56;105.53;;;23.98;;
58354;SDS011;44160;49.080;19.302;2022-11-15T02:48:25;120.80;;;27.35;;
58354;SDS011;44160;49.080;19.302;2022-11-15T02:50:52;62.70;;;22.13;;
58354;SDS011;44160;49.080;19.302;2022-11-15T02:53:18;57.38;;;17.70;;
58354;SDS011;44160;49.080;19.302;2022-11-15T02:55:47;60.10;;;20.45;;
58354;SDS011;44160;49.080;19.302;2022-11-15T03:01:19;61.35;;;15.35;;
58354;SDS011;44160;49.080;19.302;2022-11-15T03:06:42;49.25;;;15.20;;
58354;SDS011;44160;49.080;19.302;2022-11-15T03:11:47;51.63;;;15.95;;
58354;SDS011;44160;49.080;19.302;2022-11-15T03:14:24;40.35;;;15.30;;
58354;SDS011;44160;49.080;19.302;2022-11-15T03:21:43;52.25;;;15.90;;
58354;SDS011;44160;49.080;19.302;2022-11-15T03:24:10;73.15;;;15.30;;
58354;SDS011;44160;49.080;19.302;2022-11-15T03:26:38;42.78;;;16.23;;
58354;SDS011;44160;49.080;19.302;2022-11-15T03:29:09;46.10;;;14.38;;
58354;SDS011;44160;49.080;19.302;2022-11-15T03:31:39;39.88;;;14.77;;
58354;SDS011;44160;49.080;19.302;2022-11-15T03:36:59;37.80;;;15.48;;
58354;SDS011;44160;49.080;19.302;2022-11-15T03:39:25;43.75;;;15.32;;
58354;SDS011;44160;49.080;19.302;2022-11-15T03:41:56;44.35;;;17.02;;
58354;SDS011;44160;49.080;19.302;2022-11-15T03:46:52;53.55;;;17.20;;
58354;SDS011;44160;49.080;19.302;2022-11-15T03:49:33;47.40;;;16.23;;
58354;SDS011;44160;49.080;19.302;2022-11-15T03:52:00;54.20;;;20.20;;
58354;SDS011;44160;49.080;19.302;2022-11-15T03:54:27;41.75;;;18.42;;
58354;SDS011;44160;49.080;19.302;2022-11-15T03:56:53;40.42;;;15.55;;
58354;SDS011;44160;49.080;19.302;2022-11-15T03:59:19;42.20;;;15.82;;
58354;SDS011;44160;49.080;19.302;2022-11-15T04:01:45;50.40;;;17.23;;
58354;SDS011;44160;49.080;19.302;2022-11-15T04:04:11;54.13;;;18.35;;
58354;SDS011;44160;49.080;19.302;2022-11-15T04:06:37;47.65;;;18.27;;
58354;SDS011;44160;49.080;19.302;2022-11-15T04:09:04;51.60;;;17.55;;
58354;SDS011;44160;49.080;19.302;2022-11-15T04:11:30;65.57;;;21.45;;
58354;SDS011;44160;49.080;19.302;2022-11-15T04:13:56;52.63;;;17.95;;
58354;SDS011;44160;49.080;19.302;2022-11-15T04:16:22;43.75;;;15.80;;
58354;SDS011;44160;49.080;19.302;2022-11-15T04:18:48;59.63;;;17.25;;
58354;SDS011;44160;49.080;19.302;2022-11-15T04:21:34;42.03;;;16.75;;
58354;SDS011;44160;49.080;19.302;2022-11-15T04:24:18;37.03;;;12.80;;
58354;SDS011;44160;49.080;19.302;2022-11-15T04:26:44;38.30;;;14.88;;
58354;SDS011;44160;49.080;19.302;2022-11-15T04:29:10;30.98;;;13.93;;
58354;SDS011;44160;49.080;19.302;2022-11-15T04:31:55;28.55;;;13.73;;
58354;SDS011;44160;49.080;19.302;2022-11-15T04:34:21;32.40;;;14.80;;
58354;SDS011;44160;49.080;19.302;2022-11-15T04:36:47;49.63;;;15.13;;
58354;SDS011;44160;49.080;19.302;2022-11-15T04:39:31;47.92;;;15.50;;
58354;SDS011;44160;49.080;19.302;2022-11-15T04:41:57;38.03;;;11.48;;
58354;SDS011;44160;49.080;19.302;2022-11-15T04:44:23;27.63;;;12.77;;
58354;SDS011;44160;49.080;19.302;2022-11-15T04:46:49;40.95;;;14.27;;
58354;SDS011;44160;49.080;19.302;2022-11-15T04:49:15;44.22;;;16.10;;
58354;SDS011;44160;49.080;19.302;2022-11-15T04:51:41;39.83;;;16.75;;
58354;SDS011;44160;49.080;19.302;2022-11-15T04:54:07;45.17;;;17.30;;
58354;SDS011;44160;49.080;19.302;2022-11-15T04:56:33;52.40;;;20.85;;
58354;SDS011;44160;49.080;19.302;2022-11-15T04:58:59;43.42;;;17.02;;
58354;SDS011;44160;49.080;19.302;2022-11-15T05:01:25;48.55;;;15.63;;
58354;SDS011;44160;49.080;19.302;2022-11-15T05:03:51;34.58;;;14.38;;
58354;SDS011;44160;49.080;19.302;2022-11-15T05:06:36;41.05;;;13.82;;
58354;SDS011;44160;49.080;19.302;2022-11-15T05:09:03;55.70;;;16.23;;
58354;SDS011;44160;49.080;19.302;2022-11-15T05:11:29;35.05;;;14.30;;
58354;SDS011;44160;49.080;19.302;2022-11-15T05:13:55;42.45;;;14.80;;
58354;SDS011;44160;49.080;19.302;2022-11-15T05:16:21;45.67;;;17.60;;
58354;SDS011;44160;49.080;19.302;2022-11-15T05:18:50;46.58;;;16.25;;
58354;SDS011;44160;49.080;19.302;2022-11-15T05:21:16;46.17;;;17.30;;
58354;SDS011;44160;49.080;19.302;2022-11-15T05:23:42;54.80;;;19.65;;
58354;SDS011;44160;49.080;19.302;2022-11-15T05:26:09;58.35;;;18.58;;
58354;SDS011;44160;49.080;19.302;2022-11-15T05:28:35;34.97;;;16.13;;
58354;SDS011;44160;49.080;19.302;2022-11-15T05:31:05;33.63;;;15.65;;
58354;SDS011;44160;49.080;19.302;2022-11-15T05:33:33;40.53;;;15.55;;
58354;SDS011;44160;49.080;19.302;2022-11-15T05:36:04;50.63;;;15.85;;
58354;SDS011;44160;49.080;19.302;2022-11-15T05:38:31;42.42;;;16.83;;
58354;SDS011;44160;49.080;19.302;2022-11-15T05:40:57;38.22;;;16.65;;
58354;SDS011;44160;49.080;19.302;2022-11-15T05:43:23;37.28;;;16.52;;
58354;SDS011;44160;49.080;19.302;2022-11-15T05:45:49;33.65;;;17.30;;
58354;SDS011;44160;49.080;19.302;2022-11-15T05:48:15;46.25;;;17.05;;
58354;SDS011;44160;49.080;19.302;2022-11-15T05:50:42;29.98;;;15.77;;
58354;SDS011;44160;49.080;19.302;2022-11-15T05:53:09;32.65;;;16.95;;
58354;SDS011;44160;49.080;19.302;2022-11-15T05:55:37;36.72;;;17.90;;
58354;SDS011;44160;49.080;19.302;2022-11-15T05:58:03;35.92;;;16.33;;
58354;SDS011;44160;49.080;19.302;2022-11-15T06:00:30;31.67;;;15.20;;
58354;SDS011;44160;49.080;19.302;2022-11-15T06:02:56;32.35;;;16.95;;
58354;SDS011;44160;49.080;19.302;2022-11-15T06:05:22;30.13;;;17.45;;
58354;SDS011;44160;49.080;19.302;2022-11-15T06:07:48;32.67;;;15.75;;
58354;SDS011;44160;49.080;19.302;2022-11-15T06:10:14;37.10;;;17.63;;
58354;SDS011;44160;49.080;19.302;2022-11-15T06:12:40;31.20;;;17.08;;
58354;SDS011;44160;49.080;19.302;2022-11-15T06:15:06;32.67;;;17.27;;
58354;SDS011;44160;49.080;19.302;2022-11-15T06:17:32;31.35;;;16.75;;
58354;SDS011;44160;49.080;19.302;2022-11-15T06:19:58;29.05;;;16.52;;
58354;SDS011;44160;49.080;19.302;2022-11-15T06:22:24;35.22;;;16.83;;
58354;SDS011;44160;49.080;19.302;2022-11-15T06:24:50;23.65;;;14.82;;
58354;SDS011;44160;49.080;19.302;2022-11-15T06:27:16;27.23;;;14.43;;
58354;SDS011;44160;49.080;19.302;2022-11-15T06:29:42;24.67;;;15.27;;
58354;SDS011;44160;49.080;19.302;2022-11-15T06:32:08;26.13;;;15.18;;
58354;SDS011;44160;49.080;19.302;2022-11-15T06:34:34;22.67;;;14.15;;
58354;SDS011;44160;49.080;19.302;2022-11-15T06:37:00;23.10;;;14.40;;
58354;SDS011;44160;49.080;19.302;2022-11-15T06:39:26;23.92;;;14.45;;
58354;SDS011;44160;49.080;19.302;2022-11-15T06:41:52;30.50;;;16.45;;
58354;SDS011;44160;49.080;19.302;2022-11-15T06:44:19;27.40;;;16.35;;
58354;SDS011;44160;49.080;19.302;2022-11-15T06:46:44;36.92;;;17.90;;
58354;SDS011;44160;49.080;19.302;2022-11-15T06:49:11;44.40;;;25.10;;
58354;SDS011;44160;49.080;19.302;2022-11-15T06:51:38;41.45;;;20.95;;
58354;SDS011;44160;49.080;19.302;2022-11-15T06:54:04;42.40;;;20.60;;
58354;SDS011;44160;49.080;19.302;2022-11-15T06:56:30;36.15;;;19.02;;
58354;SDS011;44160;49.080;19.302;2022-11-15T06:58:56;38.75;;;19.08;;
58354;SDS011;44160;49.080;19.302;2022-11-15T07:01:22;42.08;;;20.00;;
58354;SDS011;44160;49.080;19.302;2022-11-15T07:03:48;36.60;;;19.52;;
58354;SDS011;44160;49.080;19.302;2022-11-15T07:06:15;35.88;;;18.88;;
58354;SDS011;44160;49.080;19.302;2022-11-15T07:08:41;38.58;;;19.55;;
58354;SDS011;44160;49.080;19.302;2022-11-15T07:11:08;40.50;;;20.55;;
58354;SDS011;44160;49.080;19.302;2022-11-15T07:13:34;33.70;;;17.77;;
58354;SDS011;44160;49.080;19.302;2022-11-15T07:16:02;39.30;;;20.08;;
58354;SDS011;44160;49.080;19.302;2022-11-15T07:18:28;43.65;;;21.58;;
58354;SDS011;44160;49.080;19.302;2022-11-15T07:20:55;44.00;;;21.35;;
58354;SDS011;44160;49.080;19.302;2022-11-15T07:23:21;46.53;;;22.77;;
58354;SDS011;44160;49.080;19.302;2022-11-15T07:25:47;38.97;;;21.33;;
58354;SDS011;44160;49.080;19.302;2022-11-15T07:28:13;39.42;;;21.75;;
58354;SDS011;44160;49.080;19.302;2022-11-15T07:30:39;36.20;;;20.17;;
58354;SDS011;44160;49.080;19.302;2022-11-15T07:33:05;39.60;;;18.40;;
58354;SDS011;44160;49.080;19.302;2022-11-15T07:35:31;39.70;;;19.95;;
58354;SDS011;44160;49.080;19.302;2022-11-15T07:37:58;42.13;;;20.48;;
58354;SDS011;44160;49.080;19.302;2022-11-15T07:40:25;43.05;;;20.52;;
58354;SDS011;44160;49.080;19.302;2022-11-15T07:42:52;35.10;;;20.70;;
58354;SDS011;44160;49.080;19.302;2022-11-15T07:45:18;28.17;;;16.17;;
58354;SDS011;44160;49.080;19.302;2022-11-15T07:47:51;28.45;;;16.35;;
58354;SDS011;44160;49.080;19.302;2022-11-15T07:50:17;29.95;;;16.77;;
58354;SDS011;44160;49.080;19.302;2022-11-15T07:52:44;25.25;;;14.70;;
58354;SDS011;44160;49.080;19.302;2022-11-15T07:55:10;20.80;;;13.82;;
58354;SDS011;44160;49.080;19.302;2022-11-15T07:57:37;21.58;;;13.15;;
58354;SDS011;44160;49.080;19.302;2022-11-15T08:00:04;25.05;;;15.85;;
58354;SDS011;44160;49.080;19.302;2022-11-15T08:02:31;20.85;;;13.13;;
58354;SDS011;44160;49.080;19.302;2022-11-15T08:04:57;21.95;;;13.95;;
58354;SDS011;44160;49.080;19.302;2022-11-15T08:07:24;23.77;;;14.30;;
58354;SDS011;44160;49.080;19.302;2022-11-15T08:09:50;25.83;;;14.65;;
58354;SDS011;44160;49.080;19.302;2022-11-15T08:12:16;20.05;;;13.95;;
58354;SDS011;44160;49.080;19.302;2022-11-15T08:14:45;23.83;;;14.93;;
58354;SDS011;44160;49.080;19.302;2022-11-15T08:17:11;30.95;;;17.00;;
58354;SDS011;44160;49.080;19.302;2022-11-15T08:19:37;24.92;;;15.57;;
58354;SDS011;44160;49.080;19.302;2022-11-15T08:22:03;27.58;;;17.17;;
58354;SDS011;44160;49.080;19.302;2022-11-15T08:24:29;29.35;;;16.65;;
58354;SDS011;44160;49.080;19.302;2022-11-15T08:26:55;36.20;;;18.50;;
58354;SDS011;44160;49.080;19.302;2022-11-15T08:29:21;28.58;;;17.48;;
58354;SDS011;44160;49.080;19.302;2022-11-15T08:31:47;30.13;;;17.15;;
58354;SDS011;44160;49.080;19.302;2022-11-15T08:34:13;27.10;;;16.88;;
58354;SDS011;44160;49.080;19.302;2022-11-15T08:36:40;30.65;;;16.27;;
58354;SDS011;44160;49.080;19.302;2022-11-15T08:39:06;26.52;;;16.85;;
58354;SDS011;44160;49.080;19.302;2022-11-15T08:41:36;27.45;;;17.23;;
58354;SDS011;44160;49.080;19.302;2022-11-15T08:44:03;29.40;;;17.60;;
58354;SDS011;44160;49.080;19.302;2022-11-15T08:46:29;28.98;;;18.48;;
58354;SDS011;44160;49.080;19.302;2022-11-15T08:48:55;28.40;;;18.92;;
58354;SDS011;44160;49.080;19.302;2022-11-15T08:51:22;29.73;;;18.80;;
58354;SDS011;44160;49.080;19.302;2022-11-15T08:53:48;30.35;;;18.20;;
58354;SDS011;44160;49.080;19.302;2022-11-15T08:56:14;28.67;;;17.08;;
58354;SDS011;44160;49.080;19.302;2022-11-15T08:58:40;28.67;;;17.23;;
58354;SDS011;44160;49.080;19.302;2022-11-15T09:01:13;27.38;;;17.85;;
58354;SDS011;44160;49.080;19.302;2022-11-15T09:03:41;32.88;;;17.55;;
58354;SDS011;44160;49.080;19.302;2022-11-15T09:06:07;24.00;;;16.55;;
58354;SDS011;44160;49.080;19.302;2022-11-15T09:08:34;35.25;;;15.43;;
58354;SDS011;44160;49.080;19.302;2022-11-15T09:11:07;23.88;;;15.32;;
58354;SDS011;44160;49.080;19.302;2022-11-15T09:13:33;25.02;;;16.70;;
58354;SDS011;44160;49.080;19.302;2022-11-15T09:16:00;26.13;;;16.25;;
58354;SDS011;44160;49.080;19.302;2022-11-15T09:18:28;22.92;;;15.20;;
58354;SDS011;44160;49.080;19.302;2022-11-15T09:20:57;22.67;;;14.77;;
58354;SDS011;44160;49.080;19.302;2022-11-15T09:23:24;26.15;;;14.43;;
58354;SDS011;44160;49.080;19.302;2022-11-15T09:25:50;20.00;;;12.93;;
58354;SDS011;44160;49.080;19.302;2022-11-15T09:28:16;20.45;;;14.00;;
58354;SDS011;44160;49.080;19.302;2022-11-15T09:30:42;23.27;;;14.27;;
58354;SDS011;44160;49.080;19.302;2022-11-15T09:33:09;23.60;;;15.55;;
58354;SDS011;44160;49.080;19.302;2022-11-15T09:35:35;27.13;;;16.33;;
58354;SDS011;44160;49.080;19.302;2022-11-15T09:38:02;33.25;;;17.23;;
58354;SDS011;44160;49.080;19.302;2022-11-15T09:40:29;27.13;;;16.73;;
58354;SDS011;44160;49.080;19.302;2022-11-15T09:45:46;28.05;;;16.50;;
58354;SDS011;44160;49.080;19.302;2022-11-15T09:51:02;25.90;;;16.27;;
58354;SDS011;44160;49.080;19.302;2022-11-15T09:53:31;30.35;;;18.88;;
58354;SDS011;44160;49.080;19.302;2022-11-15T09:56:03;27.95;;;17.00;;
58354;SDS011;44160;49.080;19.302;2022-11-15T10:01:32;16.90;;;13.10;;
58354;SDS011;44160;49.080;19.302;2022-11-15T10:03:59;18.75;;;13.55;;
58354;SDS011;44160;49.080;19.302;2022-11-15T10:06:26;19.77;;;13.45;;
58354;SDS011;44160;49.080;19.302;2022-11-15T10:08:55;18.00;;;12.60;;
58354;SDS011;44160;49.080;19.302;2022-11-15T10:11:24;15.50;;;12.85;;
58354;SDS011;44160;49.080;19.302;2022-11-15T10:13:52;16.25;;;12.55;;
58354;SDS011;44160;49.080;19.302;2022-11-15T10:16:46;16.58;;;12.43;;
58354;SDS011;44160;49.080;19.302;2022-11-15T10:24:10;15.52;;;12.80;;
58354;SDS011;44160;49.080;19.302;2022-11-15T10:26:38;18.05;;;13.25;;
58354;SDS011;44160;49.080;19.302;2022-11-15T10:29:04;18.83;;;12.77;;
58354;SDS011;44160;49.080;19.302;2022-11-15T10:31:30;16.88;;;12.75;;
58354;SDS011;44160;49.080;19.302;2022-11-15T10:34:08;18.77;;;13.88;;
58354;SDS011;44160;49.080;19.302;2022-11-15T10:36:36;18.05;;;12.35;;
58354;SDS011;44160;49.080;19.302;2022-11-15T10:39:02;16.90;;;13.18;;
58354;SDS011;44160;49.080;19.302;2022-11-15T10:46:37;24.23;;;13.52;;
58354;SDS011;44160;49.080;19.302;2022-11-15T10:54:29;22.13;;;13.82;;
58354;SDS011;44160;49.080;19.302;2022-11-15T10:56:57;23.10;;;14.73;;
58354;SDS011;44160;49.080;19.302;2022-11-15T10:59:26;21.13;;;14.55;;
58354;SDS011;44160;49.080;19.302;2022-11-15T11:01:52;23.20;;;14.93;;
58354;SDS011;44160;49.080;19.302;2022-11-15T11:04:18;18.48;;;12.95;;
58354;SDS011;44160;49.080;19.302;2022-11-15T11:06:52;18.10;;;13.45;;
58354;SDS011;44160;49.080;19.302;2022-11-15T11:09:27;24.63;;;14.15;;
58354;SDS011;44160;49.080;19.302;2022-11-15T11:11:55;22.85;;;14.52;;
58354;SDS011;44160;49.080;19.302;2022-11-15T11:16:50;24.38;;;16.50;;
58354;SDS011;44160;49.080;19.302;2022-11-15T11:42:42;25.75;;;15.85;;
58354;SDS011;44160;49.080;19.302;2022-11-15T11:50:23;20.95;;;13.73;;
58354;SDS011;44160;49.080;19.302;2022-11-15T11:55:47;25.10;;;14.32;;
58354;SDS011;44160;49.080;19.302;2022-11-15T12:00:43;24.65;;;15.80;;
58354;SDS011;44160;49.080;19.302;2022-11-15T12:03:16;22.42;;;14.48;;
58354;SDS011;44160;49.080;19.302;2022-11-15T12:05:46;23.95;;;13.90;;
58354;SDS011;44160;49.080;19.302;2022-11-15T12:09:01;23.10;;;15.35;;
58354;SDS011;44160;49.080;19.302;2022-11-15T12:11:03;24.98;;;14.88;;
58354;SDS011;44160;49.080;19.302;2022-11-15T12:13:36;26.17;;;15.73;;
58354;SDS011;44160;49.080;19.302;2022-11-15T12:16:14;29.17;;;16.65;;
58354;SDS011;44160;49.080;19.302;2022-11-15T12:18:44;24.38;;;14.95;;
58354;SDS011;44160;49.080;19.302;2022-11-15T12:21:14;28.45;;;15.70;;
58354;SDS011;44160;49.080;19.302;2022-11-15T12:23:49;31.85;;;17.73;;
58354;SDS011;44160;49.080;19.302;2022-11-15T12:26:21;27.45;;;15.85;;
58354;SDS011;44160;49.080;19.302;2022-11-15T12:29:09;31.13;;;14.00;;
58354;SDS011;44160;49.080;19.302;2022-11-15T12:31:38;39.65;;;15.27;;
58354;SDS011;44160;49.080;19.302;2022-11-15T12:34:28;29.95;;;14.25;;
58354;SDS011;44160;49.080;19.302;2022-11-15T12:37:01;24.70;;;15.18;;
58354;SDS011;44160;49.080;19.302;2022-11-15T12:47:21;24.05;;;15.20;;
58354;SDS011;44160;49.080;19.302;2022-11-15T12:49:48;23.65;;;15.13;;
58354;SDS011;44160;49.080;19.302;2022-11-15T12:52:14;21.77;;;13.13;;
58354;SDS011;44160;49.080;19.302;2022-11-15T13:04:46;30.25;;;15.38;;
58354;SDS011;44160;49.080;19.302;2022-11-15T13:17:42;67.25;;;33.95;;
58354;SDS011;44160;49.080;19.302;2022-11-15T13:27:44;21.35;;;13.32;;
58354;SDS011;44160;49.080;19.302;2022-11-15T13:30:21;15.77;;;11.45;;
58354;SDS011;44160;49.080;19.302;2022-11-15T13:32:48;18.27;;;11.68;;
58354;SDS011;44160;49.080;19.302;2022-11-15T13:35:19;25.00;;;13.25;;
58354;SDS011;44160;49.080;19.302;2022-11-15T13:37:45;24.88;;;13.75;;
58354;SDS011;44160;49.080;19.302;2022-11-15T13:40:22;21.83;;;13.45;;
58354;SDS011;44160;49.080;19.302;2022-11-15T13:42:49;36.80;;;19.92;;
58354;SDS011;44160;49.080;19.302;2022-11-15T13:45:16;28.42;;;14.02;;
58354;SDS011;44160;49.080;19.302;2022-11-15T13:47:43;30.08;;;19.75;;
58354;SDS011;44160;49.080;19.302;2022-11-15T13:50:12;31.45;;;18.15;;
58354;SDS011;44160;49.080;19.302;2022-11-15T13:52:39;32.03;;;18.20;;
58354;SDS011;44160;49.080;19.302;2022-11-15T14:02:51;32.50;;;20.25;;
58354;SDS011;44160;49.080;19.302;2022-11-15T14:05:22;36.08;;;20.10;;
58354;SDS011;44160;49.080;19.302;2022-11-15T14:07:53;33.38;;;19.33;;
58354;SDS011;44160;49.080;19.302;2022-11-15T14:10:33;36.72;;;19.00;;
58354;SDS011;44160;49.080;19.302;2022-11-15T14:12:59;33.33;;;17.63;;
58354;SDS011;44160;49.080;19.302;2022-11-15T14:17:55;33.50;;;20.05;;
58354;SDS011;44160;49.080;19.302;2022-11-15T14:22:54;34.70;;;20.33;;
58354;SDS011;44160;49.080;19.302;2022-11-15T14:25:30;39.92;;;21.33;;
58354;SDS011;44160;49.080;19.302;2022-11-15T14:28:12;36.50;;;20.98;;
58354;SDS011;44160;49.080;19.302;2022-11-15T14:30:40;44.00;;;21.05;;
58354;SDS011;44160;49.080;19.302;2022-11-15T14:35:53;44.60;;;24.85;;
58354;SDS011;44160;49.080;19.302;2022-11-15T14:38:21;38.55;;;23.08;;
58354;SDS011;44160;49.080;19.302;2022-11-15T14:40:47;33.15;;;20.65;;
58354;SDS011;44160;49.080;19.302;2022-11-15T14:43:13;37.67;;;23.00;;
58354;SDS011;44160;49.080;19.302;2022-11-15T14:45:39;36.92;;;22.08;;
58354;SDS011;44160;49.080;19.302;2022-11-15T14:48:06;35.67;;;20.77;;
58354;SDS011;44160;49.080;19.302;2022-11-15T14:50:32;34.28;;;21.08;;
58354;SDS011;44160;49.080;19.302;2022-11-15T14:52:58;38.13;;;20.80;;
58354;SDS011;44160;49.080;19.302;2022-11-15T14:55:28;45.92;;;20.58;;
58354;SDS011;44160;49.080;19.302;2022-11-15T14:57:57;34.83;;;21.50;;
58354;SDS011;44160;49.080;19.302;2022-11-15T15:00:23;36.30;;;20.77;;
58354;SDS011;44160;49.080;19.302;2022-11-15T15:02:50;50.28;;;28.73;;
58354;SDS011;44160;49.080;19.302;2022-11-15T15:05:24;47.92;;;29.08;;
58354;SDS011;44160;49.080;19.302;2022-11-15T15:07:51;37.53;;;23.38;;
58354;SDS011;44160;49.080;19.302;2022-11-15T15:10:21;37.55;;;20.35;;
58354;SDS011;44160;49.080;19.302;2022-11-15T15:12:47;30.50;;;19.80;;
58354;SDS011;44160;49.080;19.302;2022-11-15T15:15:14;33.70;;;22.00;;
58354;SDS011;44160;49.080;19.302;2022-11-15T15:17:41;41.00;;;22.77;;
58354;SDS011;44160;49.080;19.302;2022-11-15T15:20:07;39.55;;;21.55;;
58354;SDS011;44160;49.080;19.302;2022-11-15T15:22:33;33.42;;;23.05;;
58354;SDS011;44160;49.080;19.302;2022-11-15T15:24:59;41.40;;;22.35;;
58354;SDS011;44160;49.080;19.302;2022-11-15T15:27:25;35.03;;;22.45;;
58354;SDS011;44160;49.080;19.302;2022-11-15T15:29:51;37.28;;;22.85;;
58354;SDS011;44160;49.080;19.302;2022-11-15T15:32:17;42.90;;;25.63;;
58354;SDS011;44160;49.080;19.302;2022-11-15T15:34:43;47.80;;;30.80;;
58354;SDS011;44160;49.080;19.302;2022-11-15T15:37:23;50.13;;;32.10;;
58354;SDS011;44160;49.080;19.302;2022-11-15T15:39:50;54.17;;;35.13;;
58354;SDS011;44160;49.080;19.302;2022-11-15T15:42:16;49.78;;;30.08;;
58354;SDS011;44160;49.080;19.302;2022-11-15T15:44:42;48.33;;;30.00;;
58354;SDS011;44160;49.080;19.302;2022-11-15T15:47:11;43.60;;;29.88;;
58354;SDS011;44160;49.080;19.302;2022-11-15T15:49:38;44.67;;;26.10;;
58354;SDS011;44160;49.080;19.302;2022-11-15T15:52:06;46.03;;;26.38;;
58354;SDS011;44160;49.080;19.302;2022-11-15T15:54:32;47.03;;;27.08;;
58354;SDS011;44160;49.080;19.302;2022-11-15T15:56:58;52.65;;;29.27;;
58354;SDS011;44160;49.080;19.302;2022-11-15T15:59:24;67.55;;;36.50;;
58354;SDS011;44160;49.080;19.302;2022-11-15T16:01:50;62.50;;;37.40;;
58354;SDS011;44160;49.080;19.302;2022-11-15T16:04:17;57.38;;;32.95;;
58354;SDS011;44160;49.080;19.302;2022-11-15T16:06:43;70.35;;;41.25;;
58354;SDS011;44160;49.080;19.302;2022-11-15T16:09:13;52.03;;;31.88;;
58354;SDS011;44160;49.080;19.302;2022-11-15T16:11:40;64.13;;;33.33;;
58354;SDS011;44160;49.080;19.302;2022-11-15T16:14:06;85.20;;;44.75;;
58354;SDS011;44160;49.080;19.302;2022-11-15T16:16:32;49.30;;;30.17;;
58354;SDS011;44160;49.080;19.302;2022-11-15T16:18:59;64.30;;;36.20;;
58354;SDS011;44160;49.080;19.302;2022-11-15T16:21:26;83.68;;;43.95;;
58354;SDS011;44160;49.080;19.302;2022-11-15T16:23:52;77.28;;;42.25;;
58354;SDS011;44160;49.080;19.302;2022-11-15T16:26:22;59.28;;;36.33;;
58354;SDS011;44160;49.080;19.302;2022-11-15T16:28:49;50.90;;;31.77;;
58354;SDS011;44160;49.080;19.302;2022-11-15T16:31:15;55.30;;;32.38;;
58354;SDS011;44160;49.080;19.302;2022-11-15T16:33:43;68.65;;;37.45;;
58354;SDS011;44160;49.080;19.302;2022-11-15T16:36:31;70.03;;;38.15;;
58354;SDS011;44160;49.080;19.302;2022-11-15T16:38:57;58.08;;;32.17;;